Photometre #749[NE_1.6_Dp] Strzyzow AOT

File : 20200923_749.hum

23/09/2020,05:17:06,TEMP=16.1,BA=5.60,STAT.A,ExtBa=13.60
23/09/2020,05:21:07,TEMP=16.3,BA=5.44,STAT.A,ExtBa=13.40
23/09/2020,05:25:50,TEMP=16.3,BA=5.44,STAT.A,ExtBa=13.30
23/09/2020,05:31:26,TEMP=16.4,BA=5.56,STAT.A,ExtBa=13.30
23/09/2020,05:38:12,TEMP=16.4,BA=5.56,STAT.A,ExtBa=13.20
23/09/2020,05:46:34,TEMP=16.6,BA=5.40,STAT.A,ExtBa=13.30
23/09/2020,05:57:12,TEMP=16.9,BA=5.52,STAT.B,ExtBa=13.50
23/09/2020,06:08:21,TEMP=17.8,BA=5.40,STAT.A,ExtBa=12.90
23/09/2020,06:10:54,TEMP=17.7,BA=5.40,STAT.A,ExtBa=13.00
23/09/2020,06:14:32,TEMP=17.6,BA=5.40,STAT.A,ExtBa=13.10
23/09/2020,06:21:57,TEMP=17.7,BA=5.48,STAT.A,ExtBa=13.20
23/09/2020,06:30:31,TEMP=18.1,BA=5.56,STAT.C,ExtBa=13.20
23/09/2020,07:00:06,TEMP=19.9,BA=5.36,STAT.b=17.0
23/09/2020,07:00:49,TEMP=20.0,BA=5.36,STAT.A,ExtBa=13.00
23/09/2020,07:04:12,TEMP=19.7,BA=5.36,STAT.A,ExtBa=13.00
23/09/2020,07:07:08,TEMP=19.8,BA=5.36,STAT.A,ExtBa=13.00
23/09/2020,07:25:21,TEMP=20.1,BA=5.56,STAT.F,ExtBa=13.30
23/09/2020,07:55:28,TEMP=21.4,BA=5.36,STAT.b=16.0
23/09/2020,07:56:04,TEMP=21.4,BA=5.36,STAT.b=16.0
23/09/2020,07:57:50,TEMP=21.1,BA=5.36,STAT.D,ExtBa=12.70
23/09/2020,08:10:20,TEMP=21.1,BA=5.52,STAT.D,ExtBa=13.00
23/09/2020,08:25:22,TEMP=21.5,BA=5.52,STAT.F,ExtBa=13.20
23/09/2020,08:52:28,TEMP=23.1,BA=5.32,STAT.b=17.0
23/09/2020,08:53:04,TEMP=23.1,BA=5.32,STAT.b=17.0
23/09/2020,08:55:20,TEMP=22.6,BA=5.32,STAT.D,ExtBa=13.00
23/09/2020,09:10:21,TEMP=22.2,BA=5.48,STAT.D,ExtBa=12.90
23/09/2020,09:25:22,TEMP=23.0,BA=5.48,STAT.F,ExtBa=13.10
23/09/2020,09:54:35,TEMP=24.2,BA=5.32,STAT.b=17.0
23/09/2020,09:55:11,TEMP=24.2,BA=5.32,STAT.b=17.0
23/09/2020,09:56:56,TEMP=23.9,BA=5.32,STAT.D,ExtBa=13.10
23/09/2020,10:10:21,TEMP=23.7,BA=5.44,STAT.D,ExtBa=13.10
23/09/2020,10:25:22,TEMP=24.0,BA=5.44,STAT.F,ExtBa=12.80
23/09/2020,10:57:02,TEMP=25.0,BA=5.32,STAT.b=17.0
23/09/2020,10:57:37,TEMP=25.0,BA=5.32,STAT.b=17.0
23/09/2020,10:59:25,TEMP=24.5,BA=5.32,STAT.D,ExtBa=13.20
23/09/2020,11:10:20,TEMP=24.2,BA=5.40,STAT.D,ExtBa=13.20
23/09/2020,11:25:22,TEMP=23.9,BA=5.40,STAT.F,ExtBa=13.40
23/09/2020,11:55:01,TEMP=24.1,BA=5.28,STAT.b=18.0
23/09/2020,11:55:37,TEMP=24.1,BA=5.28,STAT.b=18.0
23/09/2020,11:57:21,TEMP=23.5,BA=5.28,STAT.D,ExtBa=13.40
23/09/2020,12:10:20,TEMP=22.8,BA=5.40,STAT.D,ExtBa=13.10
23/09/2020,12:25:22,TEMP=22.1,BA=5.40,STAT.F,ExtBa=13.40
23/09/2020,12:40:20,TEMP=21.6,BA=5.44,STAT.D,ExtBa=13.00
23/09/2020,12:55:20,TEMP=21.5,BA=5.44,STAT.D,ExtBa=13.20
23/09/2020,13:10:20,TEMP=21.6,BA=5.44,STAT.D,ExtBa=12.90
23/09/2020,13:25:22,TEMP=21.6,BA=5.44,STAT.F,ExtBa=12.90
23/09/2020,13:43:36,TEMP=21.4,BA=5.48,STAT.A,ExtBa=13.00
23/09/2020,13:58:10,TEMP=20.9,BA=5.48,STAT.A,ExtBa=13.10
23/09/2020,14:10:08,TEMP=20.6,BA=5.40,STAT.A,ExtBa=13.00
23/09/2020,14:20:11,TEMP=20.4,BA=5.40,STAT.C,ExtBa=13.10
23/09/2020,14:28:45,TEMP=20.1,BA=5.40,STAT.A,ExtBa=13.10
23/09/2020,14:36:10,TEMP=20.0,BA=5.32,STAT.A,ExtBa=13.20
23/09/2020,14:42:40,TEMP=19.9,BA=5.48,STAT.A,ExtBa=13.20
23/09/2020,14:48:24,TEMP=19.9,BA=5.48,STAT.A,ExtBa=13.10
23/09/2020,14:53:30,TEMP=19.8,BA=5.32,STAT.B,ExtBa=13.10
23/09/2020,15:04:08,TEMP=19.5,BA=5.52,STAT.A,ExtBa=13.20
23/09/2020,15:12:30,TEMP=19.4,BA=5.52,STAT.A,ExtBa=13.20
23/09/2020,15:19:16,TEMP=19.3,BA=5.52,STAT.A,ExtBa=13.20
23/09/2020,15:24:52,TEMP=19.3,BA=5.36,STAT.A,ExtBa=13.20
23/09/2020,15:29:35,TEMP=19.2,BA=5.36,STAT.A,ExtBa=13.10
23/09/2020,15:33:36,TEMP=19.2,BA=5.36,STAT.A,ExtBa=13.10